Caro, Michigan
Current Conditions -  °F | °C
As of 11:55 PM on Friday 24 Oct 2014 (Local Time) from KCFS Reporting Station
Moderate Fog Moderate Fog  
Wind Chill: 42°   Ceiling: 200
Heat Index: 42°   Visibility: 0.25mi
Dew Point: 42°   Wind: 0mph
Humidity: 99%   Direction: NA
Pressure: 29.92"   Gusts: NA
Location:  43.49°N, 83.4°W
Report Text: KCFS 250355Z AUTO 00000KT 1/4SM FG VV002 06/05 A2992 RMK AO2 T00560054
Loading
Personal Weather Stations






























Interactive Weather Map New forecast layout! Learn more

10-Day Weather Forecast

Advertisements
Track Severe Weather on mobile